Time;durP1;ratioP1;P1;durP2;ratioP2;P2;SDS_P1;SDS_P2;PMS_P1;PMS_P2;Temp;Humidity;BMP_temperature;BMP_pressure;BME280_temperature;BME280_humidity;BME280_pressure;Samples;Min_cycle;Max_cycle;Signal;HPM_P1;HPM_P2
2023/09/13 00:02:19;;;;;;;5.25;1.70;;;24.30;76.70;;;;;;4172668;28;20431;-58
2023/09/13 00:05:01;;;;;;;5.70;1.88;;;24.30;76.20;;;;;;4187692;28;20105;-58
2023/09/13 00:07:42;;;;;;;8.68;2.05;;;24.20;75.80;;;;;;4187114;28;20056;-58
2023/09/13 00:10:44;;;;;;;5.72;1.52;;;24.20;75.80;;;;;;4185986;28;20079;-58
2023/09/13 00:13:26;;;;;;;6.50;1.70;;;24.20;75.90;;;;;;4186686;28;20513;-58
2023/09/13 00:16:07;;;;;;;4.63;1.45;;;24.20;75.60;;;;;;4187859;28;20177;-56
2023/09/13 00:18:48;;;;;;;6.65;1.80;;;24.20;76.00;;;;;;4187583;28;20051;-58
2023/09/13 00:21:29;;;;;;;;;;;24.20;75.90;;;;;;4188156;28;20083;-58
2023/09/13 00:24:10;;;;;;;5.88;1.83;;;24.10;75.90;;;;;;4171703;28;19930;-58
2023/09/13 00:26:51;;;;;;;7.97;1.77;;;24.10;75.80;;;;;;4170289;28;20058;-58
2023/09/13 00:29:34;;;;;;;3.00;1.70;;;24.10;75.80;;;;;;4171177;28;20167;-57
2023/09/13 00:32:15;;;;;;;7.80;1.50;;;24.10;75.90;;;;;;4181491;28;20052;-60
2023/09/13 00:34:56;;;;;;;6.38;1.80;;;24.10;75.70;;;;;;4170766;28;20122;-60
2023/09/13 00:37:37;;;;;;;3.35;1.70;;;24.10;75.60;;;;;;4171300;28;20191;-61
2023/09/13 00:40:18;;;;;;;2.92;1.20;;;24.10;75.50;;;;;;4186741;28;20182;-61
2023/09/13 00:43:00;;;;;;;5.50;1.70;;;24.10;75.20;;;;;;4186328;28;20129;-57
2023/09/13 00:45:42;;;;;;;7.82;1.70;;;24.00;75.10;;;;;;4183536;28;20051;-58
2023/09/13 00:48:24;;;;;;;3.63;1.50;;;24.00;75.10;;;;;;4182137;28;20060;-58
2023/09/13 00:51:06;;;;;;;4.45;1.60;;;24.00;75.00;;;;;;4176041;28;20134;-58
2023/09/13 00:53:47;;;;;;;;;;;24.10;75.20;;;;;;4184174;28;20052;-58
2023/09/13 00:56:29;;;;;;;7.95;1.63;;;24.00;75.40;;;;;;4180909;28;20402;-58
2023/09/13 00:59:11;;;;;;;3.70;1.55;;;24.00;75.30;;;;;;4180890;28;20059;-58
2023/09/13 01:01:55;;;;;;;3.17;1.55;;;24.00;75.10;;;;;;4182741;28;20052;-58
2023/09/13 01:04:39;;;;;;;6.22;1.63;;;24.00;74.80;;;;;;4182015;28;20047;-58
2023/09/13 01:07:21;;;;;;;1.77;1.30;;;24.00;74.40;;;;;;4187134;28;20055;-56
2023/09/13 01:10:03;;;;;;;2.67;1.30;;;24.00;74.40;;;;;;4177024;28;20047;-57
2023/09/13 01:12:45;;;;;;;4.35;1.45;;;24.00;74.50;;;;;;4163621;28;20051;-57
2023/09/13 01:15:29;;;;;;;1.90;1.15;;;24.00;74.50;;;;;;4173020;28;20055;-58
2023/09/13 01:18:18;;;;;;;2.80;1.38;;;24.00;74.00;;;;;;4182902;28;20055;-58
2023/09/13 01:21:22;;;;;;;2.72;1.40;;;24.00;73.80;;;;;;4181163;28;20518;-57
2023/09/13 01:24:27;;;;;;;3.40;1.58;;;24.00;73.60;;;;;;4183385;28;20117;-57
2023/09/13 01:27:26;;;;;;;2.60;1.50;;;24.00;73.50;;;;;;4183322;28;20055;-58
2023/09/13 01:30:11;;;;;;;5.57;1.63;;;24.00;72.50;;;;;;4177366;28;20403;-57
2023/09/13 01:32:53;;;;;;;3.85;1.20;;;23.90;72.80;;;;;;4180245;28;20150;-54
2023/09/13 01:35:34;;;;;;;;;;;23.90;72.30;;;;;;4176159;28;20071;-55
2023/09/13 01:38:16;;;;;;;;;;;23.90;72.80;;;;;;4181418;28;19943;-55
2023/09/13 01:41:03;;;;;;;4.25;1.50;;;23.90;74.30;;;;;;4173968;28;20030;-56
2023/09/13 01:43:47;;;;;;;5.50;1.77;;;23.90;73.10;;;;;;4155497;28;20126;-56
2023/09/13 01:46:35;;;;;;;3.67;1.73;;;23.90;72.90;;;;;;4183465;28;20515;-55
2023/09/13 01:49:18;;;;;;;2.05;1.52;;;23.90;73.20;;;;;;4168035;28;20063;-55
2023/09/13 01:52:00;;;;;;;5.50;1.77;;;23.90;73.50;;;;;;4175049;28;20185;-55
2023/09/13 01:54:43;;;;;;;3.17;1.50;;;23.90;73.60;;;;;;4180841;28;20061;-54
2023/09/13 01:57:24;;;;;;;5.20;1.80;;;23.90;73.60;;;;;;4181091;28;20420;-55
2023/09/13 02:00:07;;;;;;;3.95;1.50;;;23.90;73.80;;;;;;4163228;28;20055;-56
2023/09/13 02:02:56;;;;;;;4.28;1.48;;;23.80;73.40;;;;;;4158405;28;20063;-56
2023/09/13 02:05:38;;;;;;;4.68;1.58;;;23.80;73.10;;;;;;4178865;28;20051;-60
2023/09/13 02:08:20;;;;;;;4.07;1.73;;;23.80;73.10;;;;;;4158116;28;20526;-60
2023/09/13 02:11:02;;;;;;;5.97;1.77;;;23.80;73.00;;;;;;4172306;28;20048;-60
2023/09/13 02:13:43;;;;;;;2.22;1.23;;;23.80;72.90;;;;;;4163921;28;20230;-58
2023/09/13 02:16:25;;;;;;;2.15;1.20;;;23.80;73.10;;;;;;4170668;28;20052;-58
2023/09/13 02:19:12;;;;;;;2.17;1.13;;;23.80;73.50;;;;;;4155910;28;20043;-58
2023/09/13 02:21:56;;;;;;;2.08;1.25;;;23.80;73.60;;;;;;4153822;28;20056;-56
2023/09/13 02:24:38;;;;;;;6.47;1.75;;;23.80;73.70;;;;;;4155293;28;20056;-56
2023/09/13 02:27:20;;;;;;;2.65;1.10;;;23.80;74.10;;;;;;4171480;28;20078;-50
2023/09/13 02:30:04;;;;;;;3.13;1.58;;;23.80;72.70;;;;;;4169142;28;20148;-48
2023/09/13 02:32:45;;;;;;;2.95;1.20;;;23.80;72.70;;;;;;4186052;28;20051;-52
2023/09/13 02:35:28;;;;;;;5.20;1.38;;;23.80;73.00;;;;;;4180401;28;20052;-49
2023/09/13 02:38:09;;;;;;;2.50;1.40;;;23.80;72.90;;;;;;4170106;28;20150;-47
2023/09/13 02:40:51;;;;;;;5.88;1.52;;;23.80;73.00;;;;;;4170881;28;20086;-46
2023/09/13 02:43:32;;;;;;;4.20;1.58;;;23.80;73.40;;;;;;4180401;28;20060;-46
2023/09/13 02:46:12;;;;;;;7.05;1.83;;;23.80;73.80;;;;;;4170685;28;20186;-47
2023/09/13 02:48:54;;;;;;;4.03;1.50;;;23.80;73.80;;;;;;4168972;28;20191;-48
2023/09/13 02:51:37;;;;;;;2.95;1.60;;;23.80;73.50;;;;;;4173097;28;20175;-47
2023/09/13 02:54:18;;;;;;;4.20;1.40;;;23.80;73.30;;;;;;4171688;28;20048;-47
2023/09/13 02:57:00;;;;;;;4.95;1.67;;;23.70;73.50;;;;;;4183599;28;20093;-50
2023/09/13 02:59:44;;;;;;;4.93;1.30;;;23.70;73.70;;;;;;4188230;28;20546;-50
2023/09/13 03:02:26;;;;;;;2.85;1.40;;;23.70;73.90;;;;;;4189136;28;20667;-51
2023/09/13 03:05:07;;;;;;;5.25;1.60;;;23.70;73.80;;;;;;4189608;28;20051;-54
2023/09/13 03:07:49;;;;;;;;;;;23.80;73.90;;;;;;4188155;28;20122;-49
2023/09/13 03:10:30;;;;;;;4.60;2.28;;;23.70;73.90;;;;;;4188625;28;20045;-49
2023/09/13 03:13:11;;;;;;;;;;;23.70;74.00;;;;;;4189085;28;20047;-48
2023/09/13 03:15:52;;;;;;;2.25;1.10;;;23.70;74.00;;;;;;4189311;28;20017;-50
2023/09/13 03:18:33;;;;;;;;;;;23.70;75.00;;;;;;4189095;28;20178;-51
2023/09/13 03:21:17;;;;;;;3.05;1.50;;;23.70;73.90;;;;;;4184328;28;19928;-52
2023/09/13 03:24:00;;;;;;;3.35;1.55;;;23.70;73.60;;;;;;4187892;28;20055;-48
2023/09/13 03:26:42;;;;;;;3.33;1.55;;;23.60;73.40;;;;;;4187906;28;20051;-55
2023/09/13 03:29:23;;;;;;;6.68;2.33;;;23.60;73.10;;;;;;4188052;28;20077;-52
2023/09/13 03:32:07;;;;;;;4.25;1.30;;;23.60;72.50;;;;;;4187918;28;20051;-49
2023/09/13 03:34:48;;;;;;;2.75;1.40;;;23.60;72.00;;;;;;4176984;28;20093;-51
2023/09/13 03:37:31;;;;;;;4.95;1.45;;;23.60;72.80;;;;;;4171921;28;20055;-54
2023/09/13 03:40:14;;;;;;;4.55;1.27;;;23.50;73.10;;;;;;4172579;28;20183;-51
2023/09/13 03:42:55;;;;;;;3.53;1.20;;;23.50;73.30;;;;;;4176937;28;20055;-51
2023/09/13 03:45:36;;;;;;;6.85;1.85;;;23.50;73.50;;;;;;4186856;28;20052;-49
2023/09/13 03:48:17;;;;;;;;;;;23.50;73.70;;;;;;4189647;28;20055;-53
2023/09/13 03:50:58;;;;;;;5.18;1.60;;;23.50;73.60;;;;;;4186942;28;20287;-54
2023/09/13 03:53:39;;;;;;;4.03;1.67;;;23.50;73.10;;;;;;4187388;28;20515;-50
2023/09/13 03:56:21;;;;;;;;;;;23.50;72.70;;;;;;4188227;28;20419;-54
2023/09/13 03:59:02;;;;;;;6.40;1.80;;;23.50;72.20;;;;;;4188538;28;20520;-50
2023/09/13 04:01:44;;;;;;;4.88;1.58;;;23.50;72.20;;;;;;4187317;28;20125;-51
2023/09/13 04:04:26;;;;;;;4.50;1.73;;;23.40;71.10;;;;;;4181477;28;20048;-52
2023/09/13 04:07:06;;;;;;;6.80;1.70;;;23.40;70.80;;;;;;4175428;28;20048;-50
2023/09/13 04:09:48;;;;;;;5.78;2.10;;;23.40;70.20;;;;;;4187423;28;20056;-52
2023/09/13 04:12:30;;;;;;;6.75;1.90;;;23.40;69.60;;;;;;4188203;28;20067;-49
2023/09/13 04:15:11;;;;;;;3.97;1.67;;;23.30;69.60;;;;;;4186496;28;20059;-51
2023/09/13 04:17:52;;;;;;;4.80;1.40;;;23.30;69.50;;;;;;4188245;28;20451;-47
2023/09/13 04:20:32;;;;;;;5.25;1.73;;;23.30;69.10;;;;;;4187346;28;20055;-46
2023/09/13 04:23:16;;;;;;;5.43;1.58;;;23.30;68.90;;;;;;4186801;28;20051;-47
2023/09/13 04:25:57;;;;;;;;;;;23.30;69.50;;;;;;4186527;28;20048;-46
2023/09/13 04:28:40;;;;;;;6.40;1.55;;;23.30;68.70;;;;;;4187066;28;19931;-47
2023/09/13 04:31:21;;;;;;;5.00;2.00;;;23.20;69.90;;;;;;4186978;28;20052;-49
2023/09/13 04:34:03;;;;;;;3.75;1.55;;;23.20;69.70;;;;;;4186160;28;20568;-51
2023/09/13 04:36:47;;;;;;;4.38;2.08;;;23.20;69.80;;;;;;4186628;28;20118;-46
2023/09/13 04:39:31;;;;;;;6.00;1.85;;;23.20;70.40;;;;;;4174394;28;20043;-48
2023/09/13 04:42:13;;;;;;;4.20;1.60;;;23.10;69.60;;;;;;4184808;28;20169;-49
2023/09/13 04:44:55;;;;;;;2.92;1.75;;;23.20;69.80;;;;;;4179400;28;20059;-47
2023/09/13 04:47:36;;;;;;;6.63;1.77;;;23.10;69.50;;;;;;4186568;28;20121;-45
2023/09/13 04:50:17;;;;;;;3.45;1.95;;;23.20;70.00;;;;;;4186854;28;20058;-50
2023/09/13 04:52:58;;;;;;;;;;;23.10;69.40;;;;;;4186916;28;20100;-44
2023/09/13 04:55:43;;;;;;;5.75;1.50;;;23.20;70.10;;;;;;4187205;28;19927;-51
2023/09/13 04:58:24;;;;;;;2.95;1.63;;;23.10;70.20;;;;;;4170351;28;20500;-53
2023/09/13 05:01:07;;;;;;;3.05;1.77;;;23.10;70.40;;;;;;4176122;28;20169;-49
2023/09/13 05:03:49;;;;;;;3.88;1.65;;;23.10;70.40;;;;;;4186211;28;20134;-48
2023/09/13 05:06:31;;;;;;;6.00;2.10;;;23.10;70.30;;;;;;4187713;28;20051;-47
2023/09/13 05:09:12;;;;;;;4.15;1.70;;;23.10;70.40;;;;;;4187842;28;20407;-47
2023/09/13 05:11:53;;;;;;;;;;;23.10;70.30;;;;;;4187582;28;20144;-50
2023/09/13 05:14:36;;;;;;;5.55;2.00;;;23.10;70.60;;;;;;4185176;28;20394;-50
2023/09/13 05:17:18;;;;;;;2.63;1.52;;;23.10;71.30;;;;;;4187097;28;20071;-46
2023/09/13 05:19:59;;;;;;;5.55;1.30;;;23.10;72.50;;;;;;4187178;28;20062;-47
2023/09/13 05:22:40;;;;;;;3.80;1.70;;;23.10;71.70;;;;;;4186299;28;20178;-47
2023/09/13 05:25:21;;;;;;;5.35;2.08;;;23.10;71.60;;;;;;4186585;28;20071;-51
2023/09/13 05:28:03;;;;;;;2.47;1.45;;;23.10;70.70;;;;;;4187208;28;20451;-46
2023/09/13 05:30:46;;;;;;;;;;;23.00;70.50;;;;;;4188049;28;20052;-47
2023/09/13 05:33:29;;;;;;;6.15;2.05;;;23.00;70.80;;;;;;4187625;28;19926;-46
2023/09/13 05:36:10;;;;;;;6.68;1.70;;;22.90;70.60;;;;;;4187140;28;20059;-52
2023/09/13 05:38:51;;;;;;;2.60;1.45;;;22.90;70.60;;;;;;4186866;28;20055;-47
2023/09/13 05:41:32;;;;;;;;;;;22.90;71.40;;;;;;4170764;28;20059;-50
2023/09/13 05:44:19;;;;;;;4.97;1.70;;;22.90;72.20;;;;;;4170550;28;19961;-52
2023/09/13 05:47:00;;;;;;;2.55;1.63;;;22.80;70.50;;;;;;4169762;28;20126;-51
2023/09/13 05:49:42;;;;;;;5.57;1.60;;;22.80;71.10;;;;;;4178646;28;20047;-50
2023/09/13 05:52:23;;;;;;;5.45;1.65;;;22.70;71.40;;;;;;4186560;28;20047;-52
2023/09/13 05:55:05;;;;;;;5.60;1.65;;;22.80;71.70;;;;;;4186905;28;20047;-53
2023/09/13 05:57:47;;;;;;;8.50;1.85;;;22.80;71.80;;;;;;4186884;28;20506;-49
2023/09/13 06:00:28;;;;;;;6.53;1.95;;;22.80;71.80;;;;;;4186712;28;20051;-52
2023/09/13 06:03:08;;;;;;;6.82;1.92;;;22.80;71.80;;;;;;4187108;28;20089;-51
2023/09/13 06:05:51;;;;;;;5.35;1.88;;;22.70;71.80;;;;;;4187046;28;20109;-51
2023/09/13 06:08:32;;;;;;;7.20;1.90;;;22.70;71.80;;;;;;4185879;28;20060;-48
2023/09/13 06:11:15;;;;;;;8.18;1.85;;;22.80;71.70;;;;;;4170376;28;20553;-51
2023/09/13 06:13:55;;;;;;;8.30;2.20;;;22.70;71.80;;;;;;4170167;28;20056;-50
2023/09/13 06:16:37;;;;;;;8.63;2.72;;;22.80;72.00;;;;;;4174828;28;20113;-55
2023/09/13 06:19:18;;;;;;;;;;;22.80;72.30;;;;;;4186285;28;20047;-52
2023/09/13 06:22:00;;;;;;;5.85;2.28;;;22.80;72.40;;;;;;4186498;28;19931;-54
2023/09/13 06:24:40;;;;;;;5.35;2.53;;;22.80;72.60;;;;;;4189406;28;20063;-52
2023/09/13 06:27:22;;;;;;;;;;;22.80;72.10;;;;;;4189834;28;20064;-52
2023/09/13 06:30:03;;;;;;;7.78;2.60;;;22.70;72.10;;;;;;4189834;28;20012;-52
2023/09/13 06:32:45;;;;;;;11.77;3.15;;;22.70;73.20;;;;;;4188330;28;20055;-56
2023/09/13 06:35:42;;;;;;;5.10;2.78;;;22.70;73.20;;;;;;4182329;28;20507;-48
2023/09/13 06:38:24;;;;;;;8.23;2.97;;;22.70;72.20;;;;;;4189583;28;20055;-48
2023/09/13 06:41:06;;;;;;;6.25;2.40;;;22.70;72.80;;;;;;4171214;28;20055;-51
2023/09/13 06:43:47;;;;;;;6.32;2.50;;;22.70;72.30;;;;;;4173289;28;20087;-50
2023/09/13 06:46:42;;;;;;;5.75;2.35;;;22.70;74.00;;;;;;4186711;28;20113;-46
2023/09/13 06:49:28;;;;;;;6.10;2.30;;;22.70;74.00;;;;;;4179464;28;20059;-46
2023/09/13 06:52:09;;;;;;;6.13;2.72;;;22.70;74.90;;;;;;4196862;28;20044;-50
2023/09/13 06:54:53;;;;;;;5.97;2.47;;;22.70;75.10;;;;;;4180134;28;20064;-52
2023/09/13 06:57:36;;;;;;;14.05;3.33;;;22.60;73.50;;;;;;4189387;28;20043;-50
2023/09/13 07:00:20;;;;;;;8.45;2.50;;;22.60;74.10;;;;;;4189004;28;20066;-52
2023/09/13 07:03:12;;;;;;;7.03;2.75;;;22.60;73.30;;;;;;4184662;28;20055;-51
2023/09/13 07:05:54;;;;;;;8.50;2.83;;;22.60;73.10;;;;;;4189344;28;20502;-52
2023/09/13 07:08:35;;;;;;;6.68;2.95;;;22.60;74.80;;;;;;4186380;28;20056;-48
2023/09/13 07:11:18;;;;;;;7.53;2.30;;;22.70;75.40;;;;;;4188555;28;20075;-45
2023/09/13 07:13:59;;;;;;;7.63;2.42;;;22.70;74.90;;;;;;4180292;28;20075;-48
2023/09/13 07:16:40;;;;;;;9.27;3.17;;;22.70;75.20;;;;;;4181835;28;20050;-45
2023/09/13 07:19:21;;;;;;;6.25;2.10;;;22.70;73.90;;;;;;4188295;28;20064;-46
2023/09/13 07:22:03;;;;;;;;;;;22.80;73.40;;;;;;4189219;28;20090;-47
2023/09/13 07:24:44;;;;;;;6.22;2.13;;;22.80;73.80;;;;;;4188881;28;19926;-48
2023/09/13 07:27:26;;;;;;;7.78;3.20;;;22.90;74.20;;;;;;4188065;28;20144;-44
2023/09/13 07:30:10;;;;;;;7.80;2.92;;;22.90;74.00;;;;;;4171816;28;20102;-47
2023/09/13 07:32:51;;;;;;;5.78;2.47;;;22.90;74.10;;;;;;4172116;28;20044;-51
2023/09/13 07:35:32;;;;;;;6.90;2.30;;;22.90;74.10;;;;;;4171270;28;20051;-49
2023/09/13 07:38:13;;;;;;;6.95;2.35;;;22.90;72.40;;;;;;4174571;28;20070;-48
2023/09/13 07:40:54;;;;;;;;;;;22.90;71.30;;;;;;4187923;28;20067;-47
2023/09/13 07:43:36;;;;;;;4.77;1.80;;;22.90;72.30;;;;;;4171951;28;19942;-46
2023/09/13 07:46:17;;;;;;;5.45;1.63;;;22.80;72.50;;;;;;4184678;28;20888;-47
2023/09/13 07:48:58;;;;;;;7.53;2.20;;;22.80;72.20;;;;;;4186574;28;20180;-44
2023/09/13 07:51:40;;;;;;;3.60;1.63;;;22.80;72.20;;;;;;4197623;28;20055;-46
2023/09/13 07:54:20;;;;;;;2.78;1.85;;;22.80;72.50;;;;;;4188020;28;20052;-45
2023/09/13 07:57:01;;;;;;;;;;;22.70;72.70;;;;;;4188154;28;20052;-45
2023/09/13 07:59:44;;;;;;;5.78;2.10;;;22.70;73.10;;;;;;4116946;28;20067;-45
2023/09/13 08:02:25;;;;;;;5.40;1.70;;;22.70;73.70;;;;;;4152764;28;20064;-45
2023/09/13 08:05:06;;;;;;;;;;;22.70;73.50;;;;;;4155281;28;20079;-46
2023/09/13 08:07:48;;;;;;;3.25;1.73;;;22.70;73.50;;;;;;4175026;28;20528;-46
2023/09/13 08:10:29;;;;;;;4.95;1.90;;;22.70;72.80;;;;;;4185933;28;20137;-47
2023/09/13 08:13:10;;;;;;;6.13;1.80;;;22.70;71.90;;;;;;4187642;28;20048;-46
2023/09/13 08:15:53;;;;;;;;;;;22.70;72.00;;;;;;4187098;28;20083;-45
2023/09/13 08:18:34;;;;;;;9.00;2.50;;;22.70;72.50;;;;;;4187455;28;19932;-48
2023/09/13 08:21:15;;;;;;;;;;;22.60;72.00;;;;;;4188596;28;20055;-51
2023/09/13 08:23:55;;;;;;;4.90;1.90;;;22.60;72.10;;;;;;4186989;28;19928;-45
2023/09/13 08:26:37;;;;;;;3.70;2.17;;;22.60;71.90;;;;;;4187396;28;20455;-46
2023/09/13 08:29:18;;;;;;;4.88;2.28;;;22.70;72.30;;;;;;4187220;28;20637;-41
2023/09/13 08:32:00;;;;;;;5.00;1.92;;;22.70;72.90;;;;;;4187583;28;20047;-39
2023/09/13 08:34:42;;;;;;;7.60;1.92;;;22.70;72.20;;;;;;4186830;28;20043;-38
2023/09/13 08:37:23;;;;;;;5.82;1.98;;;22.70;72.50;;;;;;4186836;28;20054;-37
2023/09/13 08:40:06;;;;;;;;;;;22.80;72.20;;;;;;4187746;28;20063;-37
2023/09/13 08:42:48;;;;;;;7.50;2.22;;;22.70;73.00;;;;;;4186410;28;20061;-37
2023/09/13 08:45:31;;;;;;;7.15;2.47;;;22.70;72.30;;;;;;4181926;28;20108;-38
2023/09/13 08:48:15;;;;;;;5.38;2.30;;;22.70;72.80;;;;;;4185854;28;20529;-38
2023/09/13 08:50:56;;;;;;;5.32;2.42;;;22.70;72.90;;;;;;4187621;28;20064;-37
2023/09/13 08:53:38;;;;;;;11.75;2.38;;;22.60;72.80;;;;;;4172503;28;20075;-37
2023/09/13 08:56:21;;;;;;;5.03;1.73;;;22.60;72.50;;;;;;4186517;28;20500;-37
2023/09/13 08:59:03;;;;;;;4.50;2.17;;;22.60;73.00;;;;;;4185808;28;20059;-37
2023/09/13 09:01:47;;;;;;;8.02;2.22;;;22.60;72.90;;;;;;4180944;28;20450;-46
2023/09/13 09:04:30;;;;;;;6.47;2.45;;;22.60;72.60;;;;;;4173283;28;20507;-45
2023/09/13 09:07:11;;;;;;;4.82;2.58;;;22.50;72.40;;;;;;4186930;28;20055;-43
2023/09/13 09:09:54;;;;;;;4.78;1.92;;;22.50;72.40;;;;;;4184944;28;20051;-47
2023/09/13 09:12:37;;;;;;;6.05;2.63;;;22.50;72.20;;;;;;4184953;28;20523;-47
2023/09/13 09:15:19;;;;;;;6.55;2.00;;;22.50;72.00;;;;;;4184620;28;20051;-44
2023/09/13 09:18:05;;;;;;;6.93;2.10;;;22.50;71.00;;;;;;4186421;28;20067;-45
2023/09/13 09:20:48;;;;;;;7.85;2.47;;;22.50;70.90;;;;;;4178356;28;20521;-47
2023/09/13 09:23:31;;;;;;;9.40;2.63;;;22.50;69.60;;;;;;4183602;28;20515;-46
2023/09/13 09:26:12;;;;;;;6.55;2.40;;;22.50;70.20;;;;;;4185202;28;20070;-44
2023/09/13 09:28:53;;;;;;;4.97;2.03;;;22.50;69.60;;;;;;4186304;28;20392;-45
2023/09/13 09:31:35;;;;;;;9.10;2.38;;;22.50;69.60;;;;;;4186527;28;20056;-35
2023/09/13 09:34:16;;;;;;;8.85;2.67;;;22.50;70.40;;;;;;4196186;28;20056;-35
2023/09/13 09:37:04;;;;;;;5.93;2.50;;;22.50;71.50;;;;;;4185100;28;20047;-37
2023/09/13 09:39:45;;;;;;;8.18;2.40;;;22.50;72.00;;;;;;4185681;28;20071;-35
2023/09/13 09:42:26;;;;;;;9.80;2.13;;;22.50;72.50;;;;;;4187115;28;20089;-35
2023/09/13 09:45:08;;;;;;;6.35;2.38;;;22.50;72.60;;;;;;4186603;28;20081;-43
2023/09/13 09:47:51;;;;;;;6.72;2.33;;;22.40;72.50;;;;;;4185949;28;20052;-35
2023/09/13 09:50:32;;;;;;;6.93;2.63;;;22.50;72.30;;;;;;4185806;28;20056;-35
2023/09/13 09:53:14;;;;;;;;;;;22.40;72.30;;;;;;4167950;28;20056;-35
2023/09/13 09:55:55;;;;;;;7.22;2.40;;;22.40;71.50;;;;;;4171539;28;20280;-35
2023/09/13 09:58:37;;;;;;;7.15;2.05;;;22.40;72.00;;;;;;4186072;28;20055;-35
2023/09/13 10:01:18;;;;;;;6.60;2.30;;;22.40;71.10;;;;;;4188758;28;20097;-36
2023/09/13 10:04:08;;;;;;;5.18;2.40;;;22.40;71.00;;;;;;4190037;28;20089;-47
2023/09/13 10:06:57;;;;;;;4.88;2.20;;;22.40;70.80;;;;;;4189982;28;20202;-47
2023/09/13 10:09:41;;;;;;;9.05;2.72;;;22.40;70.10;;;;;;4188995;28;20091;-44
2023/09/13 10:12:22;;;;;;;8.27;2.30;;;22.30;68.90;;;;;;4189571;28;20125;-36
2023/09/13 10:15:05;;;;;;;7.20;2.40;;;22.30;68.30;;;;;;4188741;28;20079;-36
2023/09/13 10:17:49;;;;;;;8.20;2.33;;;22.30;68.20;;;;;;4187573;28;20059;-36
2023/09/13 10:20:33;;;;;;;6.68;2.63;;;22.30;68.70;;;;;;4189521;28;20079;-36
2023/09/13 10:23:18;;;;;;;4.90;2.40;;;22.30;69.30;;;;;;4188185;28;20446;-43
2023/09/13 10:26:02;;;;;;;6.90;2.25;;;22.20;69.30;;;;;;4189271;28;20044;-45
2023/09/13 10:28:49;;;;;;;4.45;2.75;;;22.30;68.70;;;;;;4189712;28;20536;-47
2023/09/13 10:31:36;;;;;;;3.67;2.20;;;22.20;68.50;;;;;;4189623;28;20768;-45
2023/09/13 10:34:22;;;;;;;4.60;2.45;;;22.30;68.70;;;;;;4189054;28;20089;-45
2023/09/13 10:37:09;;;;;;;3.40;2.10;;;22.30;67.90;;;;;;4186468;28;20101;-46
2023/09/13 10:39:52;;;;;;;4.53;2.40;;;22.20;67.10;;;;;;4189572;28;20051;-45
2023/09/13 10:42:35;;;;;;;4.55;2.63;;;22.20;67.60;;;;;;4189271;28;20189;-45
2023/09/13 10:45:18;;;;;;;4.82;2.50;;;22.20;67.30;;;;;;4187862;28;20055;-44
2023/09/13 10:48:03;;;;;;;8.13;2.53;;;22.20;66.90;;;;;;4188684;28;20066;-45
2023/09/13 10:50:44;;;;;;;5.10;1.80;;;22.20;67.00;;;;;;4188733;28;20089;-38
2023/09/13 10:53:27;;;;;;;3.38;1.63;;;22.20;67.40;;;;;;4188760;28;20051;-37
2023/09/13 10:56:11;;;;;;;2.75;1.90;;;22.20;66.90;;;;;;4170352;28;20048;-46
2023/09/13 10:58:56;;;;;;;7.60;2.13;;;22.30;66.80;;;;;;4173003;28;20572;-37
2023/09/13 11:01:41;;;;;;;4.00;2.15;;;22.30;66.60;;;;;;4172311;28;20243;-35
2023/09/13 11:04:24;;;;;;;4.55;2.00;;;22.30;66.30;;;;;;4178592;28;20511;-45
2023/09/13 11:07:05;;;;;;;3.03;1.70;;;22.30;66.80;;;;;;4188487;28;20178;-43
2023/09/13 11:09:46;;;;;;;3.72;2.10;;;22.30;66.90;;;;;;4188215;28;20059;-43
2023/09/13 11:12:27;;;;;;;;;;;22.30;67.30;;;;;;4181575;28;20097;-44
2023/09/13 11:15:21;;;;;;;4.80;2.05;;;22.40;67.80;;;;;;4187499;28;19926;-48
2023/09/13 11:18:14;;;;;;;3.85;1.90;;;22.40;67.50;;;;;;4185929;28;20055;-44
2023/09/13 11:20:56;;;;;;;3.05;1.70;;;22.40;66.40;;;;;;4188534;28;20099;-36
2023/09/13 11:23:44;;;;;;;3.53;1.73;;;22.50;66.30;;;;;;4188515;28;20105;-36
2023/09/13 11:26:44;;;;;;;5.72;1.85;;;22.50;66.00;;;;;;4187464;28;20082;-36
2023/09/13 11:29:27;;;;;;;3.00;1.70;;;22.50;64.00;;;;;;4186141;28;20182;-35
2023/09/13 11:32:17;;;;;;;3.53;1.60;;;22.50;64.00;;;;;;4188299;28;20055;-36
2023/09/13 11:35:00;;;;;;;4.22;1.58;;;22.60;63.80;;;;;;4187543;28;20040;-36
2023/09/13 11:37:42;;;;;;;3.97;1.58;;;22.60;63.40;;;;;;4186991;28;20438;-36
2023/09/13 11:40:25;;;;;;;1.98;1.40;;;22.60;64.30;;;;;;4187878;28;20048;-36
2023/09/13 11:43:10;;;;;;;3.65;1.60;;;22.60;63.80;;;;;;4187711;28;20051;-36
2023/09/13 11:46:10;;;;;;;3.10;1.50;;;22.60;63.30;;;;;;4187681;28;20474;-36
2023/09/13 11:48:58;;;;;;;4.13;1.88;;;22.60;63.70;;;;;;4188530;28;20051;-36
2023/09/13 11:51:51;;;;;;;4.25;1.67;;;22.70;63.20;;;;;;4185979;28;20098;-36
2023/09/13 11:54:52;;;;;;;7.20;1.90;;;22.60;63.20;;;;;;4188378;28;20085;-36
2023/09/13 11:57:52;;;;;;;6.00;1.65;;;22.70;63.00;;;;;;4187859;28;20058;-36
2023/09/13 12:00:42;;;;;;;3.63;1.58;;;22.70;63.20;;;;;;4187072;28;20182;-36
2023/09/13 12:03:23;;;;;;;4.72;1.70;;;22.70;63.40;;;;;;4187473;28;20056;-36
2023/09/13 12:06:23;;;;;;;4.57;1.60;;;22.70;63.50;;;;;;4153794;28;20176;-36
2023/09/13 12:09:13;;;;;;;2.45;1.40;;;22.70;63.80;;;;;;4161133;28;20048;-36
2023/09/13 12:11:59;;;;;;;4.35;1.45;;;22.70;64.60;;;;;;4185843;28;20051;-36
2023/09/13 12:14:46;;;;;;;3.05;1.40;;;22.70;64.40;;;;;;4185136;28;20518;-36
2023/09/13 12:17:42;;;;;;;5.78;1.63;;;22.70;64.40;;;;;;4181722;28;20066;-36
2023/09/13 12:20:26;;;;;;;6.75;2.10;;;22.70;64.30;;;;;;4180134;28;20059;-36
2023/09/13 12:23:09;;;;;;;6.25;1.60;;;22.70;64.00;;;;;;4185418;28;20055;-36
2023/09/13 12:25:51;;;;;;;5.70;1.80;;;22.70;63.50;;;;;;4187654;28;20391;-36
2023/09/13 12:28:34;;;;;;;5.88;1.73;;;22.70;63.60;;;;;;4187292;28;20423;-37
2023/09/13 12:31:17;;;;;;;3.88;1.50;;;22.70;64.00;;;;;;4188085;28;20131;-36
2023/09/13 12:34:01;;;;;;;7.28;1.88;;;22.70;65.20;;;;;;4185950;28;20048;-37
2023/09/13 12:36:42;;;;;;;3.58;2.00;;;22.70;65.20;;;;;;4179794;28;20040;-45
2023/09/13 12:39:24;;;;;;;5.50;1.80;;;22.60;64.50;;;;;;4182018;28;20515;-36
2023/09/13 12:42:07;;;;;;;5.57;1.63;;;22.60;64.20;;;;;;4178881;28;20142;-36
2023/09/13 12:44:49;;;;;;;6.22;2.03;;;22.60;63.50;;;;;;4186964;28;20074;-36
2023/09/13 12:47:30;;;;;;;6.20;2.13;;;22.60;62.00;;;;;;4188028;28;20099;-36
2023/09/13 12:50:12;;;;;;;7.72;2.03;;;22.50;61.30;;;;;;4185759;28;20052;-36
2023/09/13 12:53:08;;;;;;;7.63;1.95;;;22.40;60.00;;;;;;4157658;28;20541;-36
2023/09/13 12:55:50;;;;;;;6.75;1.70;;;22.40;60.70;;;;;;4180974;28;20055;-36
2023/09/13 12:58:33;;;;;;;6.88;1.98;;;22.40;61.80;;;;;;4187216;28;20182;-36
2023/09/13 13:01:15;;;;;;;5.57;1.88;;;22.30;61.30;;;;;;4187761;28;20055;-39
2023/09/13 13:03:59;;;;;;;;;;;22.30;61.80;;;;;;4186529;28;20073;-36
2023/09/13 13:06:59;;;;;;;6.78;1.55;;;22.30;61.50;;;;;;4186496;28;20390;-43
2023/09/13 13:09:40;;;;;;;6.78;2.10;;;22.20;60.50;;;;;;4184961;28;20083;-75
2023/09/13 13:12:23;;;;;;;6.43;1.45;;;22.20;60.30;;;;;;4184428;28;20055;-56
2023/09/13 13:15:05;;;;;;;4.22;1.60;;;22.20;60.80;;;;;;4170036;28;20067;-36
2023/09/13 13:17:49;;;;;;;4.60;1.88;;;22.20;60.50;;;;;;4164484;28;20056;-36
2023/09/13 13:20:30;;;;;;;5.57;1.90;;;22.10;59.90;;;;;;4177584;28;20467;-36
2023/09/13 13:23:13;;;;;;;3.85;1.65;;;22.10;59.90;;;;;;4184621;28;20055;-36
2023/09/13 13:25:54;;;;;;;4.28;1.85;;;22.10;60.60;;;;;;4187022;28;20063;-36
2023/09/13 13:28:36;;;;;;;4.47;1.83;;;22.10;60.50;;;;;;4186681;28;20384;-36
2023/09/13 13:31:20;;;;;;;4.43;1.50;;;22.10;60.00;;;;;;4186124;28;20047;-36
2023/09/13 13:34:01;;;;;;;4.38;1.73;;;22.10;60.20;;;;;;4179214;28;20055;-36
2023/09/13 13:36:44;;;;;;;3.53;1.70;;;22.10;59.60;;;;;;4181125;28;20055;-36
2023/09/13 13:39:26;;;;;;;;;;;22.10;58.60;;;;;;4185836;28;20105;-36
2023/09/13 13:42:08;;;;;;;3.63;1.45;;;22.10;58.80;;;;;;4184219;28;20399;-47
2023/09/13 13:44:50;;;;;;;4.35;1.70;;;22.10;59.10;;;;;;4186501;28;20055;-46
2023/09/13 13:47:31;;;;;;;8.60;2.20;;;22.10;60.30;;;;;;4172200;28;20056;-48
2023/09/13 13:50:13;;;;;;;;;;;22.10;59.70;;;;;;4175176;28;20056;-45
2023/09/13 13:52:54;;;;;;;5.18;1.80;;;22.10;59.80;;;;;;4186702;28;20383;-46
2023/09/13 13:55:35;;;;;;;6.35;1.73;;;22.20;59.20;;;;;;4186041;28;20131;-45
2023/09/13 13:58:16;;;;;;;5.13;1.83;;;22.20;58.70;;;;;;4186676;28;20047;-46
2023/09/13 14:00:59;;;;;;;3.78;1.88;;;22.20;58.50;;;;;;4186073;28;20081;-45
2023/09/13 14:03:40;;;;;;;5.47;1.83;;;22.20;58.80;;;;;;4185653;28;20051;-47
2023/09/13 14:06:21;;;;;;;;;;;22.30;58.40;;;;;;4185020;28;20126;-45
2023/09/13 14:09:03;;;;;;;5.93;2.08;;;22.30;58.40;;;;;;4185850;28;19931;-44
2023/09/13 14:11:45;;;;;;;4.43;1.80;;;22.30;58.50;;;;;;4186234;28;20051;-45
2023/09/13 14:14:28;;;;;;;6.93;1.90;;;22.30;58.50;;;;;;4185457;28;20060;-46
2023/09/13 14:17:10;;;;;;;7.00;2.05;;;22.20;58.50;;;;;;4184602;28;20056;-46
2023/09/13 14:19:52;;;;;;;5.75;1.50;;;22.20;57.90;;;;;;4185393;28;20072;-44